createdAt,value
2022-11-07T00:01:53.204Z,1.53
2022-11-07T00:06:56.730Z,1.49
2022-11-07T00:12:00.103Z,1.47
2022-11-07T00:17:04.872Z,1.54
2022-11-07T00:22:08.160Z,1.61
2022-11-07T00:27:11.413Z,1.53
2022-11-07T00:32:16.160Z,1.62
2022-11-07T00:37:19.486Z,1.53
2022-11-07T00:42:23.046Z,1.34
2022-11-07T00:47:27.644Z,1.62
2022-11-07T00:52:31.775Z,1.56
2022-11-07T00:57:35.059Z,1.56
2022-11-07T01:02:39.808Z,1.64
2022-11-07T01:07:42.949Z,1.63
2022-11-07T01:12:46.182Z,1.55
2022-11-07T01:17:50.952Z,1.58
2022-11-07T01:22:54.261Z,1.68
2022-11-07T01:27:57.492Z,1.65
2022-11-07T01:33:02.448Z,1.57
2022-11-07T01:38:06.449Z,1.42
2022-11-07T01:43:11.162Z,1.47
2022-11-07T01:48:15.999Z,1.65
2022-11-07T01:53:19.031Z,1.68
2022-11-07T01:58:22.515Z,1.64
2022-11-07T02:03:27.426Z,1.68
2022-11-07T02:08:33.670Z,1.78
2022-11-07T02:13:37.046Z,1.76
2022-11-07T02:18:44.850Z,1.86
2022-11-07T02:23:54.174Z,1.76
2022-11-07T02:28:59.833Z,1.80
2022-11-07T02:34:03.487Z,1.74
2022-11-07T02:39:06.875Z,1.73
2022-11-07T02:44:13.769Z,1.88
2022-11-07T02:49:17.246Z,1.72
2022-11-07T02:54:20.625Z,1.87
2022-11-07T02:59:27.193Z,1.88
2022-11-07T03:04:30.611Z,1.85
2022-11-07T03:09:34.131Z,1.82
2022-11-07T03:14:38.870Z,1.87
2022-11-07T03:19:42.220Z,1.92
2022-11-07T03:24:45.579Z,2.04
2022-11-07T03:29:50.467Z,2.17
2022-11-07T03:34:53.560Z,2.19
2022-11-07T03:39:56.918Z,2.21
2022-11-07T03:45:01.630Z,2.31
2022-11-07T03:50:08.216Z,2.15
2022-11-07T03:55:12.732Z,2.19
2022-11-07T04:00:18.150Z,2.26
2022-11-07T04:05:21.606Z,2.18
2022-11-07T04:10:24.894Z,2.08
2022-11-07T04:15:46.644Z,2.31
2022-11-07T04:20:49.997Z,2.21
2022-11-07T04:26:10.582Z,2.32
2022-11-07T04:31:15.426Z,2.44
2022-11-07T04:36:19.118Z,2.57
2022-11-07T04:41:25.010Z,2.56
2022-11-07T04:46:29.676Z,2.46
2022-11-07T04:51:33.251Z,2.31
2022-11-07T04:56:36.435Z,2.41
2022-11-07T05:01:41.072Z,2.31
2022-11-07T05:06:44.517Z,2.39
2022-11-07T05:11:48.521Z,2.23
2022-11-07T05:16:55.341Z,2.25
2022-11-07T05:22:12.535Z,2.24
2022-11-07T05:27:19.954Z,2.56
2022-11-07T05:32:25.114Z,2.58
2022-11-07T05:37:28.369Z,2.88
2022-11-07T05:42:31.876Z,2.89
2022-11-07T05:47:36.615Z,2.96
2022-11-07T05:52:40.276Z,2.95
2022-11-07T05:57:43.664Z,2.97
2022-11-07T06:02:56.070Z,3.09
2022-11-07T06:07:59.568Z,2.96
2022-11-07T06:13:05.014Z,2.96
2022-11-07T06:18:14.957Z,3.03
2022-11-07T06:23:19.088Z,3.00
2022-11-07T06:28:22.928Z,2.99
2022-11-07T06:33:27.588Z,3.20
2022-11-07T06:38:31.014Z,3.10
2022-11-07T06:43:35.212Z,3.18
2022-11-07T06:48:39.964Z,3.23
2022-11-07T06:53:43.208Z,3.37
2022-11-07T06:58:46.443Z,3.20
2022-11-07T07:03:51.056Z,3.20
2022-11-07T07:08:54.608Z,2.93
2022-11-07T07:14:02.095Z,3.15
2022-11-07T07:19:07.841Z,3.22
2022-11-07T07:24:11.252Z,3.05
2022-11-07T07:29:14.531Z,3.18
2022-11-07T07:34:19.173Z,3.38
2022-11-07T07:39:23.855Z,3.29
2022-11-07T07:44:27.138Z,3.46
2022-11-07T07:49:31.747Z,3.49
2022-11-07T07:54:35.009Z,3.52
2022-11-07T07:59:38.363Z,3.72
2022-11-07T08:04:43.668Z,3.78
2022-11-07T08:09:47.183Z,3.84
2022-11-07T08:14:50.445Z,4.10
2022-11-07T08:19:55.266Z,3.93
2022-11-07T08:24:58.506Z,3.89
2022-11-07T08:30:01.796Z,3.88
2022-11-07T08:35:09.358Z,3.98
2022-11-07T08:40:14.465Z,3.99
2022-11-07T08:45:18.136Z,4.00
2022-11-07T08:50:22.934Z,3.91
2022-11-07T08:55:27.389Z,4.09
2022-11-07T09:00:30.872Z,3.92
2022-11-07T09:05:36.081Z,3.97
2022-11-07T09:10:39.444Z,4.13
2022-11-07T09:15:47.678Z,4.01
2022-11-07T09:20:56.063Z,4.01
2022-11-07T09:26:01.162Z,4.01
2022-11-07T09:31:06.180Z,4.15
2022-11-07T09:36:12.082Z,4.15
2022-11-07T09:41:25.975Z,4.08
2022-11-07T09:46:46.122Z,3.86
2022-11-07T09:51:53.616Z,3.73
2022-11-07T09:56:59.894Z,3.69
2022-11-07T10:02:05.108Z,3.82
2022-11-07T10:07:20.037Z,3.79
2022-11-07T10:12:44.530Z,3.81
2022-11-07T10:17:59.011Z,3.90
2022-11-07T10:23:23.445Z,4.05
2022-11-07T10:28:27.733Z,3.97
2022-11-07T10:33:40.197Z,3.94
2022-11-07T10:38:45.092Z,4.07
2022-11-07T10:43:53.154Z,4.25
2022-11-07T10:48:58.945Z,4.02
2022-11-07T10:54:03.751Z,3.89
2022-11-07T10:59:13.883Z,3.97
2022-11-07T11:04:22.476Z,3.81
2022-11-07T11:09:32.926Z,3.84
2022-11-07T11:14:36.322Z,3.83
2022-11-07T11:19:43.115Z,4.05
2022-11-07T11:24:47.886Z,4.07
2022-11-07T11:29:59.476Z,3.98
2022-11-07T11:35:19.641Z,4.01
2022-11-07T11:40:24.573Z,3.79
2022-11-07T11:45:32.730Z,3.70
2022-11-07T11:50:44.450Z,3.65
2022-11-07T11:55:59.237Z,3.73
2022-11-07T12:01:09.490Z,3.77
2022-11-07T12:06:16.398Z,3.80
2022-11-07T12:11:28.529Z,3.86
2022-11-07T12:16:40.340Z,3.95
2022-11-07T12:21:55.099Z,4.08
2022-11-07T12:27:11.092Z,4.09
2022-11-07T12:32:22.623Z,3.99
2022-11-07T12:37:43.117Z,4.13
2022-11-07T12:43:00.296Z,4.12
2022-11-07T12:48:19.937Z,4.12
2022-11-07T12:53:39.299Z,4.30
2022-11-07T12:58:46.834Z,4.20
2022-11-07T13:04:05.245Z,4.14
2022-11-07T13:09:18.756Z,4.00
2022-11-07T13:14:30.070Z,4.17
2022-11-07T13:19:35.135Z,4.12
2022-11-07T13:24:50.822Z,3.86
2022-11-07T13:29:55.683Z,3.75
2022-11-07T13:34:59.455Z,3.65
2022-11-07T13:40:17.376Z,3.64
2022-11-07T13:45:28.372Z,3.36
2022-11-07T13:50:40.433Z,3.47
2022-11-07T13:55:48.143Z,3.39
2022-11-07T14:00:53.076Z,3.32
2022-11-07T14:05:57.422Z,3.47
2022-11-07T14:11:01.166Z,3.19
2022-11-07T14:16:09.162Z,3.32
2022-11-07T14:21:21.514Z,3.37
2022-11-07T14:26:28.346Z,3.45
2022-11-07T14:31:35.714Z,3.32
2022-11-07T14:36:47.397Z,3.25
2022-11-07T14:41:52.049Z,3.24
2022-11-07T14:46:57.154Z,3.32
2022-11-07T14:52:00.635Z,3.18
2022-11-07T14:57:05.909Z,3.16
2022-11-07T15:02:25.182Z,3.23
2022-11-07T15:07:30.272Z,3.31
2022-11-07T15:12:50.241Z,3.24
2022-11-07T15:17:56.911Z,3.22
2022-11-07T15:23:01.497Z,3.22
2022-11-07T15:28:24.104Z,3.36
2022-11-07T15:33:32.487Z,3.36
2022-11-07T15:38:35.954Z,3.39
2022-11-07T15:43:39.701Z,3.41
2022-11-07T15:48:46.914Z,3.37
2022-11-07T15:53:50.366Z,3.39
2022-11-07T15:58:55.369Z,3.31
2022-11-07T16:04:00.153Z,3.30
2022-11-07T16:09:05.462Z,3.21
2022-11-07T16:14:42.257Z,3.11
2022-11-07T16:19:40.135Z,3.32
2022-11-07T16:24:43.889Z,3.17
2022-11-07T16:29:47.746Z,3.23
2022-11-07T16:34:52.591Z,3.10
2022-11-07T16:39:55.906Z,3.23
2022-11-07T16:44:59.564Z,3.24
2022-11-07T16:50:04.595Z,3.26
2022-11-07T16:55:09.013Z,3.22
2022-11-07T17:00:21.136Z,3.29
2022-11-07T17:05:26.045Z,3.33
2022-11-07T17:10:29.043Z,3.28
2022-11-07T17:15:32.289Z,3.16
2022-11-07T17:20:52.677Z,3.06
2022-11-07T17:25:59.792Z,3.23
2022-11-07T17:31:03.321Z,3.12
2022-11-07T17:36:21.947Z,3.21
2022-11-07T17:41:28.318Z,3.20
2022-11-07T17:46:36.675Z,3.38
2022-11-07T17:51:42.202Z,3.25
2022-11-07T17:56:45.522Z,3.23
2022-11-07T18:01:49.846Z,3.23
2022-11-07T18:06:54.914Z,3.27
2022-11-07T18:11:58.017Z,3.34
2022-11-07T18:17:01.468Z,3.22
2022-11-07T18:22:06.387Z,3.25
2022-11-07T18:27:10.734Z,3.13
2022-11-07T18:32:16.884Z,3.17
2022-11-07T18:37:21.579Z,3.16
2022-11-07T18:42:24.834Z,3.14
2022-11-07T18:47:29.771Z,3.20
2022-11-07T18:52:34.329Z,3.25
2022-11-07T18:57:38.980Z,3.23
2022-11-07T19:02:42.441Z,3.38
2022-11-07T19:07:47.345Z,3.39
2022-11-07T19:12:52.277Z,3.34
2022-11-07T19:17:55.526Z,3.39
2022-11-07T19:23:00.220Z,3.40
2022-11-07T19:28:03.756Z,3.37
2022-11-07T19:33:08.154Z,3.25
2022-11-07T19:38:15.023Z,3.33
2022-11-07T19:43:18.750Z,3.15
2022-11-07T19:48:22.317Z,3.16
2022-11-07T19:53:27.630Z,3.33
2022-11-07T19:58:31.239Z,3.23
2022-11-07T20:03:34.700Z,3.28
2022-11-07T20:08:40.326Z,3.27
2022-11-07T20:13:44.465Z,3.24
2022-11-07T20:18:47.871Z,3.25
2022-11-07T20:23:54.093Z,3.32
2022-11-07T20:28:58.112Z,3.31
2022-11-07T20:34:03.924Z,3.31
2022-11-07T20:39:09.106Z,3.14
2022-11-07T20:44:14.677Z,3.10
2022-11-07T20:49:19.389Z,3.19
2022-11-07T20:54:23.950Z,3.17
2022-11-07T20:59:27.878Z,3.25
2022-11-07T21:04:44.427Z,3.14
2022-11-07T21:09:56.581Z,3.15
2022-11-07T21:14:59.843Z,3.11
2022-11-07T21:20:04.233Z,3.24
2022-11-07T21:25:10.136Z,3.27
2022-11-07T21:30:14.153Z,3.20
2022-11-07T21:35:17.926Z,3.26
2022-11-07T21:40:22.678Z,3.39
2022-11-07T21:45:26.521Z,3.24
2022-11-07T21:50:45.654Z,3.28
2022-11-07T21:55:51.244Z,3.41
2022-11-07T22:00:54.668Z,3.31
2022-11-07T22:05:58.182Z,3.31
2022-11-07T22:11:03.060Z,3.45
2022-11-07T22:16:07.393Z,3.46
2022-11-07T22:21:13.720Z,3.42
2022-11-07T22:26:20.209Z,3.23
2022-11-07T22:31:25.104Z,3.27
2022-11-07T22:36:28.367Z,3.30
2022-11-07T22:41:33.407Z,3.42
2022-11-07T22:46:36.737Z,3.47
2022-11-07T22:51:40.216Z,3.46
2022-11-07T22:56:45.008Z,3.36
2022-11-07T23:01:48.502Z,3.32
2022-11-07T23:06:51.982Z,3.36
2022-11-07T23:11:56.713Z,3.43
2022-11-07T23:17:00.024Z,3.28
2022-11-07T23:22:03.341Z,3.32
2022-11-07T23:27:09.160Z,3.25
2022-11-07T23:32:12.613Z,3.19
2022-11-07T23:37:18.092Z,3.20
2022-11-07T23:42:22.805Z,3.32
2022-11-07T23:47:43.305Z,3.24
2022-11-07T23:52:46.653Z,3.17
2022-11-07T23:58:08.856Z,3.19
